sensor_id;sensor_type;location;lat;lon;timestamp;pressure;altitude;pressure_sealevel;temperature
17142;BMP180;32805;53.556;9.944;2023-01-20T00:00:30;100591.00;;;1.70
17142;BMP180;32805;53.556;9.944;2023-01-20T00:02:58;100581.00;;;1.80
17142;BMP180;32805;53.556;9.944;2023-01-20T00:05:26;100595.00;;;1.80
17142;BMP180;32805;53.556;9.944;2023-01-20T00:07:53;100579.00;;;1.70
17142;BMP180;32805;53.556;9.944;2023-01-20T00:10:21;100605.00;;;1.70
17142;BMP180;32805;53.556;9.944;2023-01-20T00:12:50;100603.00;;;1.70
17142;BMP180;32805;53.556;9.944;2023-01-20T00:15:17;100609.00;;;1.70
17142;BMP180;32805;53.556;9.944;2023-01-20T00:17:45;100609.00;;;1.70
17142;BMP180;32805;53.556;9.944;2023-01-20T00:20:13;100592.00;;;1.70
17142;BMP180;32805;53.556;9.944;2023-01-20T00:22:41;100610.00;;;1.70
17142;BMP180;32805;53.556;9.944;2023-01-20T00:25:09;100611.00;;;1.60
17142;BMP180;32805;53.556;9.944;2023-01-20T00:27:37;100606.00;;;1.70
17142;BMP180;32805;53.556;9.944;2023-01-20T00:30:07;100610.00;;;1.70
17142;BMP180;32805;53.556;9.944;2023-01-20T00:32:36;100608.00;;;1.60
17142;BMP180;32805;53.556;9.944;2023-01-20T00:35:05;100618.00;;;1.70
17142;BMP180;32805;53.556;9.944;2023-01-20T00:37:33;100618.00;;;1.60
17142;BMP180;32805;53.556;9.944;2023-01-20T00:40:00;100613.00;;;1.60
17142;BMP180;32805;53.556;9.944;2023-01-20T00:42:28;100612.00;;;1.50
17142;BMP180;32805;53.556;9.944;2023-01-20T00:44:56;100619.00;;;1.60
17142;BMP180;32805;53.556;9.944;2023-01-20T00:47:24;100620.00;;;1.50
17142;BMP180;32805;53.556;9.944;2023-01-20T00:49:52;100610.00;;;1.50
17142;BMP180;32805;53.556;9.944;2023-01-20T00:52:20;100624.00;;;1.40
17142;BMP180;32805;53.556;9.944;2023-01-20T00:54:47;100641.00;;;1.50
17142;BMP180;32805;53.556;9.944;2023-01-20T00:57:15;100644.00;;;1.50
17142;BMP180;32805;53.556;9.944;2023-01-20T00:59:43;100651.00;;;1.40
17142;BMP180;32805;53.556;9.944;2023-01-20T01:02:10;100649.00;;;1.40
17142;BMP180;32805;53.556;9.944;2023-01-20T01:04:39;100638.00;;;1.40
17142;BMP180;32805;53.556;9.944;2023-01-20T01:07:08;100649.00;;;1.40
17142;BMP180;32805;53.556;9.944;2023-01-20T01:09:35;100655.00;;;1.40
17142;BMP180;32805;53.556;9.944;2023-01-20T01:12:03;100655.00;;;1.40
17142;BMP180;32805;53.556;9.944;2023-01-20T01:14:31;100668.00;;;1.40
17142;BMP180;32805;53.556;9.944;2023-01-20T01:16:58;100671.00;;;1.40
17142;BMP180;32805;53.556;9.944;2023-01-20T01:19:26;100676.00;;;1.40
17142;BMP180;32805;53.556;9.944;2023-01-20T01:21:55;100676.00;;;1.50
17142;BMP180;32805;53.556;9.944;2023-01-20T01:24:22;100667.00;;;1.40
17142;BMP180;32805;53.556;9.944;2023-01-20T01:26:52;100684.00;;;1.40
17142;BMP180;32805;53.556;9.944;2023-01-20T01:29:19;100673.00;;;1.40
17142;BMP180;32805;53.556;9.944;2023-01-20T01:31:47;100677.00;;;1.50
17142;BMP180;32805;53.556;9.944;2023-01-20T01:34:15;100681.00;;;1.50
17142;BMP180;32805;53.556;9.944;2023-01-20T01:36:42;100685.00;;;1.50
17142;BMP180;32805;53.556;9.944;2023-01-20T01:39:11;100691.00;;;1.40
17142;BMP180;32805;53.556;9.944;2023-01-20T01:41:39;100686.00;;;1.40
17142;BMP180;32805;53.556;9.944;2023-01-20T01:44:08;100692.00;;;1.40
17142;BMP180;32805;53.556;9.944;2023-01-20T01:46:36;100694.00;;;1.30
17142;BMP180;32805;53.556;9.944;2023-01-20T01:49:07;100694.00;;;1.30
17142;BMP180;32805;53.556;9.944;2023-01-20T01:51:38;100709.00;;;1.30
17142;BMP180;32805;53.556;9.944;2023-01-20T01:54:12;100704.00;;;1.40
17142;BMP180;32805;53.556;9.944;2023-01-20T01:56:42;100713.00;;;1.40
17142;BMP180;32805;53.556;9.944;2023-01-20T01:59:12;100713.00;;;1.40
17142;BMP180;32805;53.556;9.944;2023-01-20T02:01:45;100720.00;;;1.40
17142;BMP180;32805;53.556;9.944;2023-01-20T02:04:16;100716.00;;;1.40
17142;BMP180;32805;53.556;9.944;2023-01-20T02:06:45;100721.00;;;1.40
17142;BMP180;32805;53.556;9.944;2023-01-20T02:09:16;100719.00;;;1.40
17142;BMP180;32805;53.556;9.944;2023-01-20T02:11:45;100719.00;;;1.40
17142;BMP180;32805;53.556;9.944;2023-01-20T02:14:14;100723.00;;;1.50
17142;BMP180;32805;53.556;9.944;2023-01-20T02:16:52;100729.00;;;1.50
17142;BMP180;32805;53.556;9.944;2023-01-20T02:19:38;100737.00;;;1.40
17142;BMP180;32805;53.556;9.944;2023-01-20T02:22:20;100735.00;;;1.40
17142;BMP180;32805;53.556;9.944;2023-01-20T02:25:20;100746.00;;;1.40
17142;BMP180;32805;53.556;9.944;2023-01-20T02:28:27;100757.00;;;1.40
17142;BMP180;32805;53.556;9.944;2023-01-20T02:31:24;100754.00;;;1.40
17142;BMP180;32805;53.556;9.944;2023-01-20T02:34:00;100756.00;;;1.40
17142;BMP180;32805;53.556;9.944;2023-01-20T02:36:32;100763.00;;;1.30
17142;BMP180;32805;53.556;9.944;2023-01-20T02:39:02;100771.00;;;1.30
17142;BMP180;32805;53.556;9.944;2023-01-20T02:41:36;100766.00;;;1.40
17142;BMP180;32805;53.556;9.944;2023-01-20T02:44:11;100773.00;;;1.40
17142;BMP180;32805;53.556;9.944;2023-01-20T02:46:46;100775.00;;;1.50
17142;BMP180;32805;53.556;9.944;2023-01-20T02:49:19;100775.00;;;1.50
17142;BMP180;32805;53.556;9.944;2023-01-20T02:51:51;100776.00;;;1.60
17142;BMP180;32805;53.556;9.944;2023-01-20T02:54:22;100792.00;;;1.60
17142;BMP180;32805;53.556;9.944;2023-01-20T02:56:53;100778.00;;;1.60
17142;BMP180;32805;53.556;9.944;2023-01-20T02:59:25;100788.00;;;1.70
17142;BMP180;32805;53.556;9.944;2023-01-20T03:01:56;100797.00;;;1.70
17142;BMP180;32805;53.556;9.944;2023-01-20T03:04:34;100780.00;;;1.60
17142;BMP180;32805;53.556;9.944;2023-01-20T03:07:03;100790.00;;;1.60
17142;BMP180;32805;53.556;9.944;2023-01-20T03:09:35;100785.00;;;1.60
17142;BMP180;32805;53.556;9.944;2023-01-20T03:12:08;100797.00;;;1.60
17142;BMP180;32805;53.556;9.944;2023-01-20T03:14:38;100797.00;;;1.50
17142;BMP180;32805;53.556;9.944;2023-01-20T03:17:06;100790.00;;;1.50
17142;BMP180;32805;53.556;9.944;2023-01-20T03:19:35;100797.00;;;1.40
17142;BMP180;32805;53.556;9.944;2023-01-20T03:22:03;100805.00;;;1.40
17142;BMP180;32805;53.556;9.944;2023-01-20T03:24:32;100801.00;;;1.40
17142;BMP180;32805;53.556;9.944;2023-01-20T03:27:00;100806.00;;;1.30
17142;BMP180;32805;53.556;9.944;2023-01-20T03:29:27;100798.00;;;1.40
17142;BMP180;32805;53.556;9.944;2023-01-20T03:31:58;100796.00;;;1.30
17142;BMP180;32805;53.556;9.944;2023-01-20T03:34:29;100807.00;;;1.30
17142;BMP180;32805;53.556;9.944;2023-01-20T03:37:00;100803.00;;;1.30
17142;BMP180;32805;53.556;9.944;2023-01-20T03:39:29;100815.00;;;1.30
17142;BMP180;32805;53.556;9.944;2023-01-20T03:42:03;100812.00;;;1.30
17142;BMP180;32805;53.556;9.944;2023-01-20T03:44:43;100817.00;;;1.40
17142;BMP180;32805;53.556;9.944;2023-01-20T03:47:16;100811.00;;;1.40
17142;BMP180;32805;53.556;9.944;2023-01-20T03:49:51;100804.00;;;1.50
17142;BMP180;32805;53.556;9.944;2023-01-20T03:52:28;100822.00;;;1.50
17142;BMP180;32805;53.556;9.944;2023-01-20T03:55:17;100820.00;;;1.50
17142;BMP180;32805;53.556;9.944;2023-01-20T03:57:50;100831.00;;;1.50
17142;BMP180;32805;53.556;9.944;2023-01-20T04:00:20;100825.00;;;1.50
17142;BMP180;32805;53.556;9.944;2023-01-20T04:02:51;100844.00;;;1.60
17142;BMP180;32805;53.556;9.944;2023-01-20T04:05:20;100843.00;;;1.60
17142;BMP180;32805;53.556;9.944;2023-01-20T04:07:52;100844.00;;;1.60
17142;BMP180;32805;53.556;9.944;2023-01-20T04:10:23;100835.00;;;1.60
17142;BMP180;32805;53.556;9.944;2023-01-20T04:12:51;100844.00;;;1.60
17142;BMP180;32805;53.556;9.944;2023-01-20T04:15:21;100851.00;;;1.70
17142;BMP180;32805;53.556;9.944;2023-01-20T04:17:49;100847.00;;;1.70
17142;BMP180;32805;53.556;9.944;2023-01-20T04:20:18;100856.00;;;1.70
17142;BMP180;32805;53.556;9.944;2023-01-20T04:22:49;100863.00;;;1.70
17142;BMP180;32805;53.556;9.944;2023-01-20T04:25:23;100857.00;;;1.70
17142;BMP180;32805;53.556;9.944;2023-01-20T04:27:51;100859.00;;;1.70
17142;BMP180;32805;53.556;9.944;2023-01-20T04:30:19;100866.00;;;1.70
17142;BMP180;32805;53.556;9.944;2023-01-20T04:32:48;100878.00;;;1.70
17142;BMP180;32805;53.556;9.944;2023-01-20T04:35:17;100878.00;;;1.70
17142;BMP180;32805;53.556;9.944;2023-01-20T04:37:44;100883.00;;;1.80
17142;BMP180;32805;53.556;9.944;2023-01-20T04:40:14;100883.00;;;1.80
17142;BMP180;32805;53.556;9.944;2023-01-20T04:42:41;100882.00;;;1.70
17142;BMP180;32805;53.556;9.944;2023-01-20T04:45:13;100883.00;;;1.70
17142;BMP180;32805;53.556;9.944;2023-01-20T04:47:42;100890.00;;;1.70
17142;BMP180;32805;53.556;9.944;2023-01-20T04:50:11;100895.00;;;1.80
17142;BMP180;32805;53.556;9.944;2023-01-20T04:52:39;100893.00;;;1.80
17142;BMP180;32805;53.556;9.944;2023-01-20T04:55:07;100892.00;;;1.80
17142;BMP180;32805;53.556;9.944;2023-01-20T04:57:37;100917.00;;;1.80
17142;BMP180;32805;53.556;9.944;2023-01-20T05:00:06;100919.00;;;1.90
17142;BMP180;32805;53.556;9.944;2023-01-20T05:02:34;100907.00;;;1.80
17142;BMP180;32805;53.556;9.944;2023-01-20T05:05:02;100921.00;;;1.80
17142;BMP180;32805;53.556;9.944;2023-01-20T05:07:29;100917.00;;;1.90
17142;BMP180;32805;53.556;9.944;2023-01-20T05:09:57;100918.00;;;1.80
17142;BMP180;32805;53.556;9.944;2023-01-20T05:12:25;100923.00;;;1.80
17142;BMP180;32805;53.556;9.944;2023-01-20T05:14:54;100922.00;;;1.80
17142;BMP180;32805;53.556;9.944;2023-01-20T05:17:21;100929.00;;;1.80
17142;BMP180;32805;53.556;9.944;2023-01-20T05:19:49;100936.00;;;1.80
17142;BMP180;32805;53.556;9.944;2023-01-20T05:22:16;100931.00;;;1.80
17142;BMP180;32805;53.556;9.944;2023-01-20T05:24:44;100934.00;;;1.90
17142;BMP180;32805;53.556;9.944;2023-01-20T05:27:12;100940.00;;;1.80
17142;BMP180;32805;53.556;9.944;2023-01-20T05:29:39;100945.00;;;1.90
17142;BMP180;32805;53.556;9.944;2023-01-20T05:32:08;100944.00;;;1.90
17142;BMP180;32805;53.556;9.944;2023-01-20T05:34:36;100941.00;;;1.90
17142;BMP180;32805;53.556;9.944;2023-01-20T05:37:04;100943.00;;;2.00
17142;BMP180;32805;53.556;9.944;2023-01-20T05:39:31;100949.00;;;2.00
17142;BMP180;32805;53.556;9.944;2023-01-20T05:42:00;100957.00;;;2.00
17142;BMP180;32805;53.556;9.944;2023-01-20T05:44:27;100951.00;;;2.00
17142;BMP180;32805;53.556;9.944;2023-01-20T05:46:55;100954.00;;;2.00
17142;BMP180;32805;53.556;9.944;2023-01-20T05:49:24;100960.00;;;2.10
17142;BMP180;32805;53.556;9.944;2023-01-20T05:51:51;100958.00;;;2.00
17142;BMP180;32805;53.556;9.944;2023-01-20T05:54:19;100945.00;;;2.10
17142;BMP180;32805;53.556;9.944;2023-01-20T05:56:47;100964.00;;;2.00
17142;BMP180;32805;53.556;9.944;2023-01-20T05:59:15;100970.00;;;1.90
17142;BMP180;32805;53.556;9.944;2023-01-20T06:01:42;100980.00;;;1.90
17142;BMP180;32805;53.556;9.944;2023-01-20T06:04:10;100984.00;;;1.90
17142;BMP180;32805;53.556;9.944;2023-01-20T06:06:39;100981.00;;;2.00
17142;BMP180;32805;53.556;9.944;2023-01-20T06:09:07;100991.00;;;2.00
17142;BMP180;32805;53.556;9.944;2023-01-20T06:11:36;100998.00;;;1.90
17142;BMP180;32805;53.556;9.944;2023-01-20T06:14:03;100999.00;;;1.90
17142;BMP180;32805;53.556;9.944;2023-01-20T06:16:31;101009.00;;;2.00
17142;BMP180;32805;53.556;9.944;2023-01-20T06:18:59;101017.00;;;2.00
17142;BMP180;32805;53.556;9.944;2023-01-20T06:21:27;101030.00;;;2.10
17142;BMP180;32805;53.556;9.944;2023-01-20T06:23:56;101026.00;;;2.00
17142;BMP180;32805;53.556;9.944;2023-01-20T06:26:23;101026.00;;;1.90
17142;BMP180;32805;53.556;9.944;2023-01-20T06:28:51;101020.00;;;1.90
17142;BMP180;32805;53.556;9.944;2023-01-20T06:31:18;101041.00;;;2.00
17142;BMP180;32805;53.556;9.944;2023-01-20T06:33:46;101048.00;;;2.00
17142;BMP180;32805;53.556;9.944;2023-01-20T06:36:14;101050.00;;;2.10
17142;BMP180;32805;53.556;9.944;2023-01-20T06:38:42;101048.00;;;2.10
17142;BMP180;32805;53.556;9.944;2023-01-20T06:41:16;101055.00;;;2.00
17142;BMP180;32805;53.556;9.944;2023-01-20T06:43:44;101054.00;;;2.00
17142;BMP180;32805;53.556;9.944;2023-01-20T06:46:14;101058.00;;;2.10
17142;BMP180;32805;53.556;9.944;2023-01-20T06:48:42;101057.00;;;2.20
17142;BMP180;32805;53.556;9.944;2023-01-20T06:51:12;101065.00;;;2.10
17142;BMP180;32805;53.556;9.944;2023-01-20T06:53:40;101072.00;;;2.20
17142;BMP180;32805;53.556;9.944;2023-01-20T06:56:09;101074.00;;;2.10
17142;BMP180;32805;53.556;9.944;2023-01-20T06:58:39;101075.00;;;2.00
17142;BMP180;32805;53.556;9.944;2023-01-20T07:01:09;101078.00;;;2.10
17142;BMP180;32805;53.556;9.944;2023-01-20T07:03:37;101088.00;;;2.10
17142;BMP180;32805;53.556;9.944;2023-01-20T07:06:13;101100.00;;;2.10
17142;BMP180;32805;53.556;9.944;2023-01-20T07:08:42;101104.00;;;2.10
17142;BMP180;32805;53.556;9.944;2023-01-20T07:11:10;101110.00;;;2.10
17142;BMP180;32805;53.556;9.944;2023-01-20T07:13:39;101105.00;;;2.10
17142;BMP180;32805;53.556;9.944;2023-01-20T07:16:07;101090.00;;;2.20
17142;BMP180;32805;53.556;9.944;2023-01-20T07:18:38;101110.00;;;2.20
17142;BMP180;32805;53.556;9.944;2023-01-20T07:21:07;101110.00;;;2.20
17142;BMP180;32805;53.556;9.944;2023-01-20T07:23:35;101122.00;;;2.20
17142;BMP180;32805;53.556;9.944;2023-01-20T07:26:04;101117.00;;;2.30
17142;BMP180;32805;53.556;9.944;2023-01-20T07:28:33;101125.00;;;2.30
17142;BMP180;32805;53.556;9.944;2023-01-20T07:31:03;101127.00;;;2.40
17142;BMP180;32805;53.556;9.944;2023-01-20T07:33:31;101128.00;;;2.30
17142;BMP180;32805;53.556;9.944;2023-01-20T07:35:59;101134.00;;;2.30
17142;BMP180;32805;53.556;9.944;2023-01-20T07:38:27;101144.00;;;2.40
17142;BMP180;32805;53.556;9.944;2023-01-20T07:40:56;101143.00;;;2.40
17142;BMP180;32805;53.556;9.944;2023-01-20T07:43:23;101154.00;;;2.50
17142;BMP180;32805;53.556;9.944;2023-01-20T07:45:53;101156.00;;;2.40
17142;BMP180;32805;53.556;9.944;2023-01-20T07:48:23;101148.00;;;2.40
17142;BMP180;32805;53.556;9.944;2023-01-20T07:51:07;101158.00;;;2.50
17142;BMP180;32805;53.556;9.944;2023-01-20T07:53:36;101164.00;;;2.50
17142;BMP180;32805;53.556;9.944;2023-01-20T07:56:06;101170.00;;;2.50
17142;BMP180;32805;53.556;9.944;2023-01-20T07:58:35;101172.00;;;2.50
17142;BMP180;32805;53.556;9.944;2023-01-20T08:01:07;101164.00;;;2.50
17142;BMP180;32805;53.556;9.944;2023-01-20T08:03:37;101182.00;;;2.50
17142;BMP180;32805;53.556;9.944;2023-01-20T08:06:06;101183.00;;;2.40
17142;BMP180;32805;53.556;9.944;2023-01-20T08:08:34;101194.00;;;2.50
17142;BMP180;32805;53.556;9.944;2023-01-20T08:11:04;101192.00;;;2.50
17142;BMP180;32805;53.556;9.944;2023-01-20T08:13:32;101198.00;;;2.50
17142;BMP180;32805;53.556;9.944;2023-01-20T08:16:00;101197.00;;;2.50
17142;BMP180;32805;53.556;9.944;2023-01-20T08:18:29;101211.00;;;2.50
17142;BMP180;32805;53.556;9.944;2023-01-20T08:20:59;101219.00;;;2.50
17142;BMP180;32805;53.556;9.944;2023-01-20T08:23:27;101212.00;;;2.60
17142;BMP180;32805;53.556;9.944;2023-01-20T08:25:56;101207.00;;;2.60
17142;BMP180;32805;53.556;9.944;2023-01-20T08:28:25;101207.00;;;2.70
17142;BMP180;32805;53.556;9.944;2023-01-20T08:30:53;101219.00;;;2.70
17142;BMP180;32805;53.556;9.944;2023-01-20T08:33:21;101225.00;;;2.80
17142;BMP180;32805;53.556;9.944;2023-01-20T08:35:48;101222.00;;;2.70
17142;BMP180;32805;53.556;9.944;2023-01-20T08:38:17;101230.00;;;2.70
17142;BMP180;32805;53.556;9.944;2023-01-20T08:40:45;101235.00;;;2.70
17142;BMP180;32805;53.556;9.944;2023-01-20T08:43:12;101246.00;;;2.70
17142;BMP180;32805;53.556;9.944;2023-01-20T08:45:41;101236.00;;;2.70
17142;BMP180;32805;53.556;9.944;2023-01-20T08:48:09;101240.00;;;2.80
17142;BMP180;32805;53.556;9.944;2023-01-20T08:50:37;101246.00;;;2.80
17142;BMP180;32805;53.556;9.944;2023-01-20T08:53:05;101249.00;;;2.80
17142;BMP180;32805;53.556;9.944;2023-01-20T08:55:34;101252.00;;;2.90
17142;BMP180;32805;53.556;9.944;2023-01-20T08:58:01;101258.00;;;2.90
17142;BMP180;32805;53.556;9.944;2023-01-20T09:00:29;101253.00;;;2.90
17142;BMP180;32805;53.556;9.944;2023-01-20T09:02:57;101251.00;;;3.00
17142;BMP180;32805;53.556;9.944;2023-01-20T09:05:25;101264.00;;;3.00
17142;BMP180;32805;53.556;9.944;2023-01-20T09:07:52;101266.00;;;3.00
17142;BMP180;32805;53.556;9.944;2023-01-20T09:10:20;101273.00;;;3.10
17142;BMP180;32805;53.556;9.944;2023-01-20T09:12:49;101271.00;;;3.00
17142;BMP180;32805;53.556;9.944;2023-01-20T09:15:16;101280.00;;;3.00
17142;BMP180;32805;53.556;9.944;2023-01-20T09:17:45;101276.00;;;3.00
17142;BMP180;32805;53.556;9.944;2023-01-20T09:20:13;101275.00;;;3.00
17142;BMP180;32805;53.556;9.944;2023-01-20T09:22:41;101284.00;;;3.10
17142;BMP180;32805;53.556;9.944;2023-01-20T09:25:09;101286.00;;;3.20
17142;BMP180;32805;53.556;9.944;2023-01-20T09:27:37;101284.00;;;3.30
17142;BMP180;32805;53.556;9.944;2023-01-20T09:30:07;101291.00;;;3.30
17142;BMP180;32805;53.556;9.944;2023-01-20T09:32:35;101295.00;;;3.40
17142;BMP180;32805;53.556;9.944;2023-01-20T09:35:04;101306.00;;;3.50
17142;BMP180;32805;53.556;9.944;2023-01-20T09:37:32;101299.00;;;3.60
17142;BMP180;32805;53.556;9.944;2023-01-20T09:40:21;101306.00;;;3.70
17142;BMP180;32805;53.556;9.944;2023-01-20T09:43:15;101301.00;;;3.70
17142;BMP180;32805;53.556;9.944;2023-01-20T09:46:13;101320.00;;;3.60
17142;BMP180;32805;53.556;9.944;2023-01-20T09:48:51;101312.00;;;3.70
17142;BMP180;32805;53.556;9.944;2023-01-20T09:51:44;101308.00;;;3.80
17142;BMP180;32805;53.556;9.944;2023-01-20T09:54:37;101315.00;;;3.80
17142;BMP180;32805;53.556;9.944;2023-01-20T09:57:07;101321.00;;;4.00
17142;BMP180;32805;53.556;9.944;2023-01-20T09:59:39;101314.00;;;4.20
17142;BMP180;32805;53.556;9.944;2023-01-20T10:02:17;101314.00;;;4.30
17142;BMP180;32805;53.556;9.944;2023-01-20T10:04:47;101315.00;;;4.30
17142;BMP180;32805;53.556;9.944;2023-01-20T10:07:22;101323.00;;;4.10
17142;BMP180;32805;53.556;9.944;2023-01-20T10:09:55;101321.00;;;4.10
17142;BMP180;32805;53.556;9.944;2023-01-20T10:12:29;101323.00;;;4.20
17142;BMP180;32805;53.556;9.944;2023-01-20T10:15:00;101314.00;;;4.20
17142;BMP180;32805;53.556;9.944;2023-01-20T10:17:34;101332.00;;;4.20
17142;BMP180;32805;53.556;9.944;2023-01-20T10:20:08;101325.00;;;4.20
17142;BMP180;32805;53.556;9.944;2023-01-20T10:22:39;101324.00;;;4.20
17142;BMP180;32805;53.556;9.944;2023-01-20T10:25:13;101343.00;;;4.20
17142;BMP180;32805;53.556;9.944;2023-01-20T10:27:47;101334.00;;;4.20
17142;BMP180;32805;53.556;9.944;2023-01-20T10:30:18;101338.00;;;4.20
17142;BMP180;32805;53.556;9.944;2023-01-20T10:32:53;101336.00;;;4.10
17142;BMP180;32805;53.556;9.944;2023-01-20T10:35:25;101333.00;;;4.10
17142;BMP180;32805;53.556;9.944;2023-01-20T10:37:53;101329.00;;;4.10
17142;BMP180;32805;53.556;9.944;2023-01-20T10:40:31;101338.00;;;4.00
17142;BMP180;32805;53.556;9.944;2023-01-20T10:43:08;101337.00;;;3.90
17142;BMP180;32805;53.556;9.944;2023-01-20T10:45:49;101339.00;;;3.80
17142;BMP180;32805;53.556;9.944;2023-01-20T10:48:32;101341.00;;;3.80
17142;BMP180;32805;53.556;9.944;2023-01-20T10:51:07;101337.00;;;3.90
17142;BMP180;32805;53.556;9.944;2023-01-20T10:53:48;101348.00;;;3.80
17142;BMP180;32805;53.556;9.944;2023-01-20T10:56:35;101360.00;;;3.70
17142;BMP180;32805;53.556;9.944;2023-01-20T10:59:11;101351.00;;;3.60
17142;BMP180;32805;53.556;9.944;2023-01-20T11:01:40;101363.00;;;3.70
17142;BMP180;32805;53.556;9.944;2023-01-20T11:04:16;101355.00;;;3.70
17142;BMP180;32805;53.556;9.944;2023-01-20T11:06:47;101351.00;;;3.70
17142;BMP180;32805;53.556;9.944;2023-01-20T11:09:19;101361.00;;;3.80
17142;BMP180;32805;53.556;9.944;2023-01-20T11:11:50;101365.00;;;3.80
17142;BMP180;32805;53.556;9.944;2023-01-20T11:14:18;101369.00;;;3.80
17142;BMP180;32805;53.556;9.944;2023-01-20T11:16:49;101373.00;;;3.80
17142;BMP180;32805;53.556;9.944;2023-01-20T11:19:19;101375.00;;;3.90
17142;BMP180;32805;53.556;9.944;2023-01-20T11:21:47;101373.00;;;4.10
17142;BMP180;32805;53.556;9.944;2023-01-20T11:24:32;101376.00;;;4.30
17142;BMP180;32805;53.556;9.944;2023-01-20T11:27:03;101385.00;;;4.50
17142;BMP180;32805;53.556;9.944;2023-01-20T11:29:36;101397.00;;;4.60
17142;BMP180;32805;53.556;9.944;2023-01-20T11:32:23;101380.00;;;4.70
17142;BMP180;32805;53.556;9.944;2023-01-20T11:34:53;101375.00;;;4.60
17142;BMP180;32805;53.556;9.944;2023-01-20T11:37:22;101384.00;;;4.60
17142;BMP180;32805;53.556;9.944;2023-01-20T11:40:00;101384.00;;;4.50
17142;BMP180;32805;53.556;9.944;2023-01-20T11:42:29;101385.00;;;4.50
17142;BMP180;32805;53.556;9.944;2023-01-20T11:45:22;101394.00;;;4.40
17142;BMP180;32805;53.556;9.944;2023-01-20T11:47:59;101387.00;;;4.30
17142;BMP180;32805;53.556;9.944;2023-01-20T11:50:31;101389.00;;;4.10
17142;BMP180;32805;53.556;9.944;2023-01-20T11:53:16;101400.00;;;4.00
17142;BMP180;32805;53.556;9.944;2023-01-20T11:55:48;101389.00;;;4.00
17142;BMP180;32805;53.556;9.944;2023-01-20T11:58:18;101390.00;;;4.10
17142;BMP180;32805;53.556;9.944;2023-01-20T12:00:46;101387.00;;;4.10
17142;BMP180;32805;53.556;9.944;2023-01-20T12:03:48;101406.00;;;4.20
17142;BMP180;32805;53.556;9.944;2023-01-20T12:06:22;101403.00;;;4.50
17142;BMP180;32805;53.556;9.944;2023-01-20T12:08:54;101401.00;;;4.60
17142;BMP180;32805;53.556;9.944;2023-01-20T12:11:26;101391.00;;;4.80
17142;BMP180;32805;53.556;9.944;2023-01-20T12:14:17;101421.00;;;4.80
17142;BMP180;32805;53.556;9.944;2023-01-20T12:17:05;101415.00;;;4.60
17142;BMP180;32805;53.556;9.944;2023-01-20T12:19:46;101412.00;;;4.70
17142;BMP180;32805;53.556;9.944;2023-01-20T12:22:23;101425.00;;;4.70
17142;BMP180;32805;53.556;9.944;2023-01-20T12:24:57;101424.00;;;4.80
17142;BMP180;32805;53.556;9.944;2023-01-20T12:27:39;101428.00;;;4.90
17142;BMP180;32805;53.556;9.944;2023-01-20T12:30:18;101431.00;;;4.90
17142;BMP180;32805;53.556;9.944;2023-01-20T12:32:49;101425.00;;;4.90
17142;BMP180;32805;53.556;9.944;2023-01-20T12:35:18;101430.00;;;4.90
17142;BMP180;32805;53.556;9.944;2023-01-20T12:37:54;101422.00;;;4.80
17142;BMP180;32805;53.556;9.944;2023-01-20T12:40:32;101429.00;;;4.70
17142;BMP180;32805;53.556;9.944;2023-01-20T12:43:31;101442.00;;;4.50
17142;BMP180;32805;53.556;9.944;2023-01-20T12:46:34;101446.00;;;4.40
17142;BMP180;32805;53.556;9.944;2023-01-20T12:49:18;101453.00;;;4.40
17142;BMP180;32805;53.556;9.944;2023-01-20T12:51:59;101450.00;;;4.30
17142;BMP180;32805;53.556;9.944;2023-01-20T12:54:43;101452.00;;;4.30
17142;BMP180;32805;53.556;9.944;2023-01-20T12:57:22;101459.00;;;4.30
17142;BMP180;32805;53.556;9.944;2023-01-20T13:00:05;101465.00;;;4.40
17142;BMP180;32805;53.556;9.944;2023-01-20T13:02:49;101458.00;;;4.40
17142;BMP180;32805;53.556;9.944;2023-01-20T13:08:15;101477.00;;;4.40
17142;BMP180;32805;53.556;9.944;2023-01-20T13:10:51;101470.00;;;4.40
17142;BMP180;32805;53.556;9.944;2023-01-20T13:13:32;101474.00;;;4.30
17142;BMP180;32805;53.556;9.944;2023-01-20T13:16:30;101487.00;;;4.20
17142;BMP180;32805;53.556;9.944;2023-01-20T13:19:06;101491.00;;;4.10
17142;BMP180;32805;53.556;9.944;2023-01-20T13:21:36;101485.00;;;4.00
17142;BMP180;32805;53.556;9.944;2023-01-20T13:24:13;101499.00;;;3.90
17142;BMP180;32805;53.556;9.944;2023-01-20T13:26:46;101499.00;;;3.90
17142;BMP180;32805;53.556;9.944;2023-01-20T13:29:22;101502.00;;;3.80
17142;BMP180;32805;53.556;9.944;2023-01-20T13:31:50;101507.00;;;3.90
17142;BMP180;32805;53.556;9.944;2023-01-20T13:34:38;101504.00;;;3.90
17142;BMP180;32805;53.556;9.944;2023-01-20T13:37:27;101515.00;;;3.90
17142;BMP180;32805;53.556;9.944;2023-01-20T13:39:56;101511.00;;;3.90
17142;BMP180;32805;53.556;9.944;2023-01-20T13:42:46;101492.00;;;3.90
17142;BMP180;32805;53.556;9.944;2023-01-20T13:45:25;101512.00;;;3.90
17142;BMP180;32805;53.556;9.944;2023-01-20T13:50:38;101511.00;;;4.10
17142;BMP180;32805;53.556;9.944;2023-01-20T13:53:26;101519.00;;;4.10
17142;BMP180;32805;53.556;9.944;2023-01-20T13:56:23;101537.00;;;4.10
17142;BMP180;32805;53.556;9.944;2023-01-20T13:58:52;101534.00;;;4.10
17142;BMP180;32805;53.556;9.944;2023-01-20T14:01:20;101546.00;;;4.20
17142;BMP180;32805;53.556;9.944;2023-01-20T14:04:00;101549.00;;;4.20
17142;BMP180;32805;53.556;9.944;2023-01-20T14:06:29;101539.00;;;4.30
17142;BMP180;32805;53.556;9.944;2023-01-20T14:08:58;101556.00;;;4.30
17142;BMP180;32805;53.556;9.944;2023-01-20T14:11:27;101533.00;;;4.30
17142;BMP180;32805;53.556;9.944;2023-01-20T14:13:59;101561.00;;;4.30
17142;BMP180;32805;53.556;9.944;2023-01-20T14:16:29;101563.00;;;4.30
17142;BMP180;32805;53.556;9.944;2023-01-20T14:19:15;101572.00;;;4.30
17142;BMP180;32805;53.556;9.944;2023-01-20T14:21:49;101587.00;;;4.40
17142;BMP180;32805;53.556;9.944;2023-01-20T14:24:25;101583.00;;;4.40
17142;BMP180;32805;53.556;9.944;2023-01-20T14:27:05;101582.00;;;4.40
17142;BMP180;32805;53.556;9.944;2023-01-20T14:29:34;101586.00;;;4.50
17142;BMP180;32805;53.556;9.944;2023-01-20T14:32:13;101583.00;;;4.50
17142;BMP180;32805;53.556;9.944;2023-01-20T14:34:42;101592.00;;;4.50
17142;BMP180;32805;53.556;9.944;2023-01-20T14:37:22;101599.00;;;4.50
17142;BMP180;32805;53.556;9.944;2023-01-20T14:39:51;101600.00;;;4.50
17142;BMP180;32805;53.556;9.944;2023-01-20T14:42:22;101613.00;;;4.40